Youree, Louisiana
Current Conditions -  °F | °C
As of 7:58 AM on Monday 20 Oct 2014 (Local Time) from KBAD Reporting Station
Clear Clear  
Wind Chill: 47°   Ceiling: Unl
Heat Index: 47°   Visibility: 10mi
Dew Point: 47°   Wind: 0mph
Humidity: 98%   Direction: NA
Pressure: 30.1"   Gusts: NA
Location:  32.457°N, 93.7096°W
Report Text: KBAD 201258Z AUTO 00000KT 10SM CLR 09/08 A3010 RMK AO2 SLP196 T00860083
Loading
Personal Weather Stations






























Interactive Weather Map
Tropical Storm Tracking
New forecast layout! Learn more

10-Day Weather Forecast

Advertisements
Track Severe Weather on mobile